Time;durP1;ratioP1;P1;durP2;ratioP2;P2;SDS_P1;SDS_P2;PMS_P1;PMS_P2;Temp;Humidity;BMP_temperature;BMP_pressure;BME280_temperature;BME280_humidity;BME280_pressure;Samples;Min_cycle;Max_cycle;Signal;HPM_P1;HPM_P2
2022/07/21 00:01:25;;;;;;;35.17;31.93;;;20.10;99.90;;;;;;5099585;28;20447;-85
2022/07/21 00:03:59;;;;;;;33.30;30.00;;;20.00;99.90;;;;;;5099402;28;20492;-85
2022/07/21 00:06:26;;;;;;;33.03;29.83;;;20.00;99.90;;;;;;5098804;28;20451;-85
2022/07/21 00:08:53;;;;;;;31.00;28.17;;;20.10;99.90;;;;;;5099240;28;20449;-85
2022/07/21 00:11:20;;;;;;;30.40;27.50;;;20.00;99.90;;;;;;5099130;28;20451;-82
2022/07/21 00:13:46;;;;;;;30.27;27.50;;;20.00;99.90;;;;;;5099575;28;20459;-85
2022/07/21 00:16:15;;;;;;;30.37;27.47;;;20.00;99.90;;;;;;5098812;28;20448;-85
2022/07/21 00:18:41;;;;;;;32.10;28.80;;;20.10;99.90;;;;;;5098623;28;20817;-85
2022/07/21 00:21:08;;;;;;;29.50;27.07;;;20.10;99.90;;;;;;5098853;28;20453;-83
2022/07/21 00:23:35;;;;;;;30.00;27.20;;;20.10;99.90;;;;;;5098496;28;20488;-85
2022/07/21 00:26:02;;;;;;;34.07;30.73;;;20.20;99.90;;;;;;5098745;28;20452;-85
2022/07/21 00:28:28;;;;;;;31.77;28.80;;;20.10;99.90;;;;;;5099088;28;20448;-83
2022/07/21 00:30:55;;;;;;;31.77;28.63;;;19.90;99.90;;;;;;5099488;28;20444;-85
2022/07/21 00:33:23;;;;;;;31.73;28.93;;;20.00;99.90;;;;;;5098685;28;20443;-86
2022/07/21 00:35:50;;;;;;;29.80;27.20;;;20.00;99.90;;;;;;5098612;28;20475;-85
2022/07/21 00:38:16;;;;;;;31.40;28.43;;;20.00;99.90;;;;;;5098646;28;20456;-82
2022/07/21 00:40:43;;;;;;;29.90;27.20;;;20.00;99.90;;;;;;5098336;28;20467;-85
2022/07/21 00:43:10;;;;;;;32.23;28.87;;;20.10;99.90;;;;;;5099037;28;20484;-86
2022/07/21 00:45:37;;;;;;;33.20;30.00;;;20.00;99.90;;;;;;5098455;28;21005;-83
2022/07/21 00:48:04;;;;;;;33.80;30.47;;;19.80;99.90;;;;;;5098416;28;20446;-85
2022/07/21 00:50:33;;;;;;;31.90;28.73;;;19.70;99.90;;;;;;5097503;28;20464;-83
2022/07/21 00:53:00;;;;;;;33.87;30.40;;;19.80;99.90;;;;;;5098566;28;20930;-85
2022/07/21 00:55:26;;;;;;;30.60;27.97;;;19.90;99.90;;;;;;5098590;28;20868;-85
2022/07/21 00:57:54;;;;;;;31.17;28.07;;;20.10;99.90;;;;;;5098080;28;20452;-83
2022/07/21 01:00:24;;;;;;;28.57;25.97;;;20.10;99.90;;;;;;5098231;28;20463;-86
2022/07/21 01:02:51;;;;;;;29.80;26.97;;;20.10;99.90;;;;;;5097976;28;20497;-85
2022/07/21 01:05:18;;;;;;;29.47;26.80;;;20.20;99.90;;;;;;5097932;28;20475;-83
2022/07/21 01:07:48;;;;;;;30.70;27.90;;;20.00;99.90;;;;;;5097987;28;20453;-82
2022/07/21 01:10:16;;;;;;;30.13;27.27;;;19.90;99.90;;;;;;5097946;28;20447;-85
2022/07/21 01:12:43;;;;;;;28.90;26.23;;;19.80;99.90;;;;;;5098168;28;20444;-85
2022/07/21 01:15:12;;;;;;;28.63;25.83;;;19.80;99.90;;;;;;5098110;28;20463;-85
2022/07/21 01:17:40;;;;;;;25.33;23.10;;;19.80;99.90;;;;;;5097489;28;20443;-85
2022/07/21 01:20:09;;;;;;;24.90;22.50;;;19.80;99.90;;;;;;5104622;28;20443;-79
2022/07/21 01:22:40;;;;;;;23.23;21.13;;;19.80;99.90;;;;;;5100935;28;20454;-85
2022/07/21 01:25:08;;;;;;;22.97;20.77;;;19.90;99.90;;;;;;5098011;28;20859;-85
2022/07/21 01:27:35;;;;;;;25.73;23.53;;;19.60;99.90;;;;;;5097304;28;20963;-85
2022/07/21 01:30:04;;;;;;;21.87;19.70;;;19.50;99.90;;;;;;5096976;28;20451;-83
2022/07/21 01:32:30;;;;;;;20.03;18.10;;;19.60;99.90;;;;;;5097721;28;20956;-85
2022/07/21 01:34:57;;;;;;;20.73;18.70;;;19.70;99.90;;;;;;5097865;28;20463;-85
2022/07/21 01:37:27;;;;;;;20.73;18.83;;;19.70;99.90;;;;;;5097478;28;20945;-82
2022/07/21 01:42:39;;;;;;;18.43;16.53;;;19.90;99.90;;;;;;5075990;28;20447;-85
2022/07/21 01:45:07;;;;;;;17.40;15.80;;;19.80;99.90;;;;;;5097485;28;21220;-85
2022/07/21 01:47:35;;;;;;;17.63;15.83;;;19.80;99.90;;;;;;5096882;28;20524;-85
2022/07/21 01:50:03;;;;;;;17.80;16.20;;;19.70;99.90;;;;;;5097412;28;20466;-85
2022/07/21 01:52:29;;;;;;;18.70;17.10;;;19.70;99.90;;;;;;5098030;28;20447;-85
2022/07/21 01:54:57;;;;;;;17.00;15.40;;;19.70;99.90;;;;;;5097146;28;20474;-84
2022/07/21 01:57:26;;;;;;;17.37;15.97;;;19.70;99.90;;;;;;5097152;28;20455;-84
2022/07/21 01:59:52;;;;;;;17.77;15.93;;;19.70;99.90;;;;;;5097693;28;20448;-85
2022/07/21 02:02:20;;;;;;;21.00;19.20;;;19.50;99.90;;;;;;5097287;28;20808;-83
2022/07/21 02:04:48;;;;;;;18.70;16.80;;;19.50;99.90;;;;;;5108322;28;20532;-80
2022/07/21 02:07:15;;;;;;;16.87;15.40;;;19.60;99.90;;;;;;5110481;28;20453;-85
2022/07/21 02:09:41;;;;;;;19.63;17.63;;;19.50;99.90;;;;;;5101784;28;20453;-84
2022/07/21 02:12:10;;;;;;;16.70;15.30;;;19.50;99.90;;;;;;5111204;28;20445;-85
2022/07/21 02:14:36;;;;;;;17.90;16.40;;;19.40;99.90;;;;;;5101437;28;20464;-85
2022/07/21 02:17:03;;;;;;;18.23;16.53;;;19.40;99.90;;;;;;5100525;28;20440;-83
2022/07/21 02:19:30;;;;;;;17.03;15.40;;;19.40;99.90;;;;;;5101965;28;20455;-85
2022/07/21 02:21:57;;;;;;;18.57;16.90;;;19.30;99.90;;;;;;5101225;28;20513;-85
2022/07/21 02:24:23;;;;;;;16.20;14.80;;;19.40;99.90;;;;;;5101477;28;20990;-83
2022/07/21 02:26:50;;;;;;;19.30;17.43;;;19.30;99.90;;;;;;5101054;28;20443;-85
2022/07/21 02:29:18;;;;;;;17.20;15.53;;;19.10;99.90;;;;;;5100369;28;20459;-85
2022/07/21 02:31:45;;;;;;;22.20;18.13;;;19.10;99.90;;;;;;5101250;28;20455;-85
2022/07/21 02:34:11;;;;;;;18.60;16.93;;;19.10;99.90;;;;;;5100772;28;20473;-83
2022/07/21 02:36:39;;;;;;;16.70;15.20;;;19.00;99.90;;;;;;5100385;28;20454;-85
2022/07/21 02:39:06;;;;;;;17.60;16.00;;;19.00;99.90;;;;;;5100401;28;20451;-84
2022/07/21 02:41:33;;;;;;;17.03;15.37;;;19.20;99.90;;;;;;5100521;28;20491;-85
2022/07/21 02:43:59;;;;;;;17.53;16.00;;;19.20;99.90;;;;;;5100607;28;20491;-85
2022/07/21 02:46:27;;;;;;;19.07;16.97;;;19.20;99.90;;;;;;5100939;28;20447;-85
2022/07/21 02:48:54;;;;;;;17.57;15.87;;;19.10;99.90;;;;;;5100698;28;20456;-85
2022/07/21 02:51:21;;;;;;;17.17;15.57;;;19.10;99.90;;;;;;5100820;28;20769;-85
2022/07/21 02:53:47;;;;;;;16.03;14.63;;;19.20;99.90;;;;;;5100947;28;20448;-85
2022/07/21 02:56:14;;;;;;;16.67;15.13;;;19.20;99.90;;;;;;5100506;28;20447;-82
2022/07/21 02:58:41;;;;;;;15.77;14.27;;;19.30;99.90;;;;;;5100634;28;20446;-84
2022/07/21 03:01:07;;;;;;;15.80;14.30;;;19.40;99.90;;;;;;5110727;28;20431;-84
2022/07/21 03:03:37;;;;;;;13.27;11.97;;;19.30;99.90;;;;;;5100148;28;20490;-83
2022/07/21 03:06:04;;;;;;;15.07;13.60;;;19.30;99.90;;;;;;5100331;28;20449;-85
2022/07/21 03:08:31;;;;;;;14.30;13.10;;;19.10;99.90;;;;;;5100964;28;20459;-83
2022/07/21 03:10:58;;;;;;;13.90;12.53;;;19.20;99.90;;;;;;5100134;28;20840;-82
2022/07/21 03:13:25;;;;;;;16.30;14.93;;;19.00;99.90;;;;;;5099759;28;20454;-84
2022/07/21 03:15:53;;;;;;;16.03;14.47;;;19.00;99.90;;;;;;5099470;28;20835;-84
2022/07/21 03:18:19;;;;;;;14.20;12.90;;;18.90;99.90;;;;;;5100103;28;20454;-84
2022/07/21 03:20:48;;;;;;;13.60;12.30;;;18.90;99.90;;;;;;5100126;28;20499;-84
2022/07/21 03:23:14;;;;;;;14.73;13.53;;;18.90;99.90;;;;;;5100277;28;20446;-85
2022/07/21 03:25:42;;;;;;;14.97;13.67;;;18.80;99.90;;;;;;5091008;22;20511;-83
2022/07/21 03:28:09;;;;;;;14.50;13.10;;;18.80;99.90;;;;;;5062618;28;20453;-83
2022/07/21 03:30:36;;;;;;;15.33;13.93;;;18.70;99.90;;;;;;5061816;28;20444;-84
2022/07/21 03:33:03;;;;;;;16.80;15.20;;;18.70;99.90;;;;;;5062188;28;20519;-84
2022/07/21 03:35:30;;;;;;;15.13;13.70;;;18.70;99.90;;;;;;5062085;28;20461;-83
2022/07/21 03:37:59;;;;;;;16.50;14.90;;;18.60;99.90;;;;;;5061831;28;20456;-84
2022/07/21 03:40:29;;;;;;;16.60;15.00;;;18.80;99.90;;;;;;5062426;28;20452;-84
2022/07/21 03:42:59;;;;;;;14.77;13.47;;;18.90;99.90;;;;;;5061895;28;20450;-84
2022/07/21 03:45:29;;;;;;;16.23;14.70;;;18.90;99.90;;;;;;5061424;28;20488;-84
2022/07/21 03:47:57;;;;;;;14.40;13.10;;;18.90;99.90;;;;;;5061290;28;20937;-84
2022/07/21 03:50:23;;;;;;;14.50;13.30;;;18.90;99.90;;;;;;5061709;28;20455;-84
2022/07/21 03:52:50;;;;;;;15.70;14.00;;;18.80;99.90;;;;;;5060962;28;20946;-84
2022/07/21 03:55:18;;;;;;;15.00;13.50;;;18.90;99.90;;;;;;5061622;28;20476;-84
2022/07/21 03:57:47;;;;;;;15.13;13.67;;;19.00;99.90;;;;;;5060336;28;20484;-84
2022/07/21 04:00:17;;;;;;;15.83;14.40;;;19.00;99.90;;;;;;5060489;28;20480;-84
2022/07/21 04:02:44;;;;;;;16.10;14.47;;;19.10;99.90;;;;;;5060599;28;20512;-84
2022/07/21 04:05:12;;;;;;;16.67;15.10;;;19.00;99.90;;;;;;5060178;28;20499;-84
2022/07/21 04:07:40;;;;;;;17.27;14.60;;;19.00;99.90;;;;;;5059656;28;20453;-84
2022/07/21 04:10:08;;;;;;;16.67;15.10;;;18.90;99.90;;;;;;5060603;28;20446;-84
2022/07/21 04:12:36;;;;;;;15.90;14.50;;;18.90;99.90;;;;;;5060555;28;21013;-84
2022/07/21 04:15:04;;;;;;;15.77;14.33;;;19.10;99.90;;;;;;5060022;28;20462;-84
2022/07/21 04:17:30;;;;;;;16.17;14.57;;;19.10;99.90;;;;;;5060113;28;20451;-84
2022/07/21 04:19:57;;;;;;;16.80;15.13;;;19.20;99.90;;;;;;5061045;28;20960;-84
2022/07/21 04:22:24;;;;;;;16.43;15.03;;;19.30;99.90;;;;;;5060866;28;20823;-84
2022/07/21 04:24:51;;;;;;;14.50;13.13;;;19.30;99.90;;;;;;5060852;28;20501;-84
2022/07/21 04:27:17;;;;;;;15.37;13.87;;;19.40;99.90;;;;;;5060211;28;20456;-84
2022/07/21 04:29:46;;;;;;;14.50;13.00;;;19.40;99.90;;;;;;5061273;28;20449;-84
2022/07/21 04:32:12;;;;;;;16.20;14.67;;;19.40;99.90;;;;;;5061041;28;20837;-84
2022/07/21 04:34:39;;;;;;;14.70;13.30;;;19.40;99.90;;;;;;5060990;28;20465;-84
2022/07/21 04:37:06;;;;;;;14.67;13.40;;;19.50;99.90;;;;;;5061729;28;20472;-84
2022/07/21 04:39:32;;;;;;;16.10;14.60;;;19.40;99.90;;;;;;5061024;28;21005;-84
2022/07/21 04:41:59;;;;;;;15.50;14.10;;;19.40;99.90;;;;;;5060881;28;20484;-84
2022/07/21 04:44:26;;;;;;;14.67;13.33;;;19.40;99.90;;;;;;5061107;28;20500;-84
2022/07/21 04:46:54;;;;;;;15.90;13.83;;;19.40;99.90;;;;;;5060695;28;20452;-84
2022/07/21 04:49:20;;;;;;;15.77;14.30;;;19.40;99.90;;;;;;5061247;28;20461;-84
2022/07/21 04:51:47;;;;;;;15.20;13.77;;;19.40;99.90;;;;;;5060978;28;20460;-84
2022/07/21 04:54:14;;;;;;;17.70;16.00;;;19.50;99.90;;;;;;5060485;28;20447;-84
2022/07/21 04:56:41;;;;;;;16.27;14.73;;;19.50;99.90;;;;;;5060926;28;20453;-84
2022/07/21 04:59:08;;;;;;;17.23;15.80;;;19.60;99.90;;;;;;5061496;28;20458;-84
2022/07/21 05:01:35;;;;;;;15.30;13.97;;;19.60;99.90;;;;;;5060674;28;20797;-84
2022/07/21 05:04:04;;;;;;;14.63;13.43;;;19.70;99.90;;;;;;5061426;28;20453;-84
2022/07/21 05:06:31;;;;;;;16.57;14.97;;;19.70;99.90;;;;;;5061254;28;20448;-84
2022/07/21 05:08:58;;;;;;;17.33;15.80;;;19.70;99.90;;;;;;5062186;28;20511;-84
2022/07/21 05:11:25;;;;;;;17.63;15.90;;;19.80;99.90;;;;;;5061494;28;20453;-84
2022/07/21 05:13:52;;;;;;;15.00;13.60;;;19.80;99.90;;;;;;5062669;28;20447;-84
2022/07/21 05:16:19;;;;;;;16.20;14.67;;;19.80;99.90;;;;;;5061961;28;20473;-84
2022/07/21 05:18:46;;;;;;;15.70;14.27;;;19.80;99.90;;;;;;5061029;28;20475;-84
2022/07/21 05:21:14;;;;;;;14.20;12.90;;;19.80;99.90;;;;;;5061101;28;20472;-84
2022/07/21 05:23:40;;;;;;;14.57;13.27;;;19.80;99.90;;;;;;5060801;28;20453;-84
2022/07/21 05:26:07;;;;;;;15.00;13.60;;;19.80;99.90;;;;;;5059808;28;20489;-84
2022/07/21 05:28:34;;;;;;;14.00;12.70;;;19.80;99.90;;;;;;5060044;28;20480;-84
2022/07/21 05:31:01;;;;;;;13.83;12.53;;;19.90;99.90;;;;;;5060209;28;20452;-84
2022/07/21 05:33:27;;;;;;;20.47;13.43;;;19.80;99.90;;;;;;5061059;28;20442;-84
2022/07/21 05:35:54;;;;;;;16.03;14.57;;;19.90;99.90;;;;;;5061165;28;20471;-85
2022/07/21 05:38:37;;;;;;;16.73;15.03;;;19.80;99.90;;;;;;5056188;28;20471;-85
2022/07/21 05:41:10;;;;;;;14.17;12.97;;;19.90;99.90;;;;;;5050803;28;20465;-84
2022/07/21 05:43:37;;;;;;;15.33;13.87;;;19.90;99.90;;;;;;5054320;28;20461;-84
2022/07/21 05:46:04;;;;;;;16.47;15.07;;;20.00;99.90;;;;;;5053793;28;20485;-84
2022/07/21 05:48:30;;;;;;;16.47;14.77;;;20.00;99.90;;;;;;5054040;28;20449;-83
2022/07/21 05:50:57;;;;;;;15.50;14.10;;;20.10;99.90;;;;;;5053656;28;20463;-84
2022/07/21 05:53:25;;;;;;;16.80;15.07;;;20.10;99.90;;;;;;5053719;28;20453;-84
2022/07/21 05:55:52;;;;;;;15.30;13.53;;;20.10;99.90;;;;;;5053653;28;20473;-83
2022/07/21 05:58:22;;;;;;;15.40;13.80;;;20.10;99.90;;;;;;5053885;28;20772;-84
2022/07/21 06:01:07;;;;;;;17.43;15.80;;;20.20;99.90;;;;;;5053782;28;20453;-84
2022/07/21 06:03:35;;;;;;;17.10;15.50;;;20.30;99.90;;;;;;5053868;28;20818;-85
2022/07/21 06:06:16;;;;;;;15.73;14.33;;;20.20;99.90;;;;;;5050702;28;20494;-85
2022/07/21 06:09:06;;;;;;;16.70;15.20;;;20.20;99.90;;;;;;5052658;28;20943;-85
2022/07/21 06:11:33;;;;;;;16.70;15.20;;;20.30;99.90;;;;;;5048487;28;20457;-85
2022/07/21 06:14:00;;;;;;;16.87;15.30;;;20.40;99.90;;;;;;5051841;28;20428;-85
2022/07/21 06:16:27;;;;;;;15.00;13.63;;;20.50;99.90;;;;;;5052380;28;20442;-85
2022/07/21 06:18:54;;;;;;;15.83;14.43;;;20.50;99.90;;;;;;5052750;28;20537;-84
2022/07/21 06:21:20;;;;;;;17.50;16.03;;;20.70;99.90;;;;;;5052891;28;20452;-85
2022/07/21 06:23:47;;;;;;;16.93;15.53;;;20.60;99.90;;;;;;5051267;28;20448;-87
2022/07/21 06:26:15;;;;;;;15.77;14.30;;;20.60;99.90;;;;;;5051119;28;20501;-85
2022/07/21 06:28:42;;;;;;;14.73;13.43;;;20.40;99.90;;;;;;5043745;28;20466;-85
2022/07/21 06:31:09;;;;;;;14.20;12.90;;;20.30;99.90;;;;;;5040306;28;20456;-86
2022/07/21 06:33:35;;;;;;;16.00;14.47;;;20.30;99.90;;;;;;5051985;28;20455;-85
2022/07/21 06:36:02;;;;;;;12.77;11.87;;;20.30;99.90;;;;;;5050889;28;20468;-86
2022/07/21 06:38:29;;;;;;;14.83;13.60;;;20.40;99.90;;;;;;5052069;28;20751;-85
2022/07/21 06:40:56;;;;;;;13.30;12.13;;;20.50;99.90;;;;;;5050713;28;21023;-86
2022/07/21 06:43:24;;;;;;;14.30;12.83;;;20.60;99.90;;;;;;5050541;28;20787;-85
2022/07/21 06:45:51;;;;;;;13.80;12.47;;;20.70;99.90;;;;;;5050433;28;20487;-85
2022/07/21 06:48:27;;;;;;;12.63;11.63;;;20.60;99.90;;;;;;5050346;28;20866;-86
2022/07/21 07:01:28;;;;;;;13.10;12.00;;;20.50;99.90;;;;;;4999999;28;20551;-87
2022/07/21 07:03:55;;;;;;;12.23;11.20;;;20.60;99.90;;;;;;5002072;28;20454;-89
2022/07/21 07:06:23;;;;;;;13.33;12.33;;;20.60;99.90;;;;;;5034061;28;20613;-88
2022/07/21 07:08:50;;;;;;;12.37;11.30;;;20.60;99.90;;;;;;5034578;28;20444;-88
2022/07/21 07:11:18;;;;;;;11.53;10.70;;;20.50;99.90;;;;;;5036865;28;20461;-87
2022/07/21 07:13:44;;;;;;;13.00;11.90;;;20.70;99.90;;;;;;5056626;28;20955;-86
2022/07/21 07:16:11;;;;;;;12.00;11.00;;;20.80;99.90;;;;;;5053862;28;20824;-86
2022/07/21 07:18:39;;;;;;;12.43;11.43;;;20.70;99.90;;;;;;5054042;28;20461;-86
2022/07/21 07:21:06;;;;;;;11.17;10.27;;;20.80;99.90;;;;;;5054045;28;20451;-86
2022/07/21 07:23:33;;;;;;;11.70;10.80;;;20.80;99.90;;;;;;5053853;28;20968;-86
2022/07/21 07:26:00;;;;;;;10.43;9.63;;;20.80;99.90;;;;;;5053642;28;20502;-86
2022/07/21 07:28:26;;;;;;;10.90;9.90;;;20.90;99.90;;;;;;5053730;28;20461;-86
2022/07/21 07:30:53;;;;;;;11.93;10.73;;;21.00;99.90;;;;;;5054075;28;20459;-86
2022/07/21 07:33:21;;;;;;;11.50;10.50;;;21.10;99.90;;;;;;5053923;28;20462;-87
2022/07/21 07:35:49;;;;;;;12.20;10.67;;;21.10;99.90;;;;;;5053389;28;20478;-86
2022/07/21 07:38:16;;;;;;;11.40;10.50;;;21.20;99.90;;;;;;5053653;28;20547;-86
2022/07/21 07:40:43;;;;;;;13.37;12.07;;;21.40;99.90;;;;;;5053572;28;20460;-87
2022/07/21 07:43:10;;;;;;;13.53;12.20;;;21.40;99.90;;;;;;5053584;28;20451;-86
2022/07/21 07:45:38;;;;;;;11.00;10.07;;;21.50;99.90;;;;;;5053721;28;20579;-86
2022/07/21 07:48:06;;;;;;;11.97;10.73;;;21.60;99.90;;;;;;5053376;28;20470;-86
2022/07/21 07:50:33;;;;;;;11.47;10.40;;;21.70;99.90;;;;;;5053790;28;20451;-86
2022/07/21 07:53:01;;;;;;;11.47;10.57;;;21.80;99.90;;;;;;5053375;28;20462;-87
2022/07/21 07:55:28;;;;;;;12.53;11.43;;;21.60;99.90;;;;;;5053234;28;20477;-86
2022/07/21 07:57:55;;;;;;;10.47;9.70;;;21.70;99.90;;;;;;5053070;28;20448;-86
2022/07/21 08:00:22;;;;;;;10.83;9.97;;;21.80;99.90;;;;;;5053205;28;20465;-86
2022/07/21 08:02:49;;;;;;;10.40;9.60;;;21.80;99.90;;;;;;5053139;28;20452;-86
2022/07/21 08:05:16;;;;;;;9.43;8.63;;;21.90;99.90;;;;;;5053079;28;21027;-86
2022/07/21 08:07:43;;;;;;;10.03;9.27;;;22.00;99.90;;;;;;5052485;28;20460;-86
2022/07/21 08:10:13;;;;;;;9.47;8.67;;;22.20;99.90;;;;;;5053040;28;20491;-87
2022/07/21 08:12:41;;;;;;;9.10;8.40;;;22.40;99.90;;;;;;5053494;28;20444;-86
2022/07/21 08:15:08;;;;;;;9.50;8.80;;;22.60;99.90;;;;;;5052805;28;20471;-86
2022/07/21 08:17:36;;;;;;;10.13;9.17;;;22.80;99.90;;;;;;5052508;28;20835;-86
2022/07/21 08:20:03;;;;;;;8.67;8.10;;;22.90;99.90;;;;;;5052725;28;20453;-86
2022/07/21 08:22:30;;;;;;;9.17;8.37;;;22.90;99.90;;;;;;5052426;28;20456;-86
2022/07/21 08:24:57;;;;;;;8.43;7.83;;;22.90;99.90;;;;;;5052438;28;20484;-86
2022/07/21 08:27:25;;;;;;;8.20;7.50;;;23.10;99.90;;;;;;5052503;28;20460;-86
2022/07/21 08:29:52;;;;;;;7.57;7.00;;;23.30;99.90;;;;;;5052852;28;21108;-87
2022/07/21 08:32:20;;;;;;;8.87;8.10;;;23.40;99.90;;;;;;5052803;28;20524;-85
2022/07/21 08:34:47;;;;;;;8.63;7.93;;;23.30;99.90;;;;;;5053033;28;20480;-84
2022/07/21 08:37:14;;;;;;;8.83;7.93;;;23.30;99.90;;;;;;5051559;28;20476;-86
2022/07/21 08:39:41;;;;;;;8.13;7.43;;;23.40;99.90;;;;;;5051002;28;20492;-88
2022/07/21 08:42:12;;;;;;;9.30;8.40;;;23.60;99.90;;;;;;5059127;28;20456;-86
2022/07/21 08:44:41;;;;;;;7.60;7.10;;;23.80;99.90;;;;;;5054683;28;20519;-82
2022/07/21 08:51:30;;;;;;;7.63;7.10;;;23.90;99.90;;;;;;5029657;28;20433;-88
2022/07/21 08:54:36;;;;;;;7.50;6.90;;;23.90;99.90;;;;;;5009249;28;20463;-88
2022/07/21 08:57:03;;;;;;;8.00;7.40;;;23.80;99.90;;;;;;5027201;28;21086;-84
2022/07/21 08:59:30;;;;;;;7.30;6.70;;;23.70;99.90;;;;;;5058866;28;20444;-83
2022/07/21 09:19:19;;;;;;;7.57;7.07;;;24.30;99.90;;;;;;4974051;28;20807;-85
2022/07/21 09:21:46;;;;;;;6.73;6.30;;;24.40;99.90;;;;;;5042039;28;20452;-81
2022/07/21 09:24:16;;;;;;;7.97;7.40;;;24.60;99.90;;;;;;5056833;28;20454;-80
2022/07/21 09:27:05;;;;;;;7.50;6.80;;;24.60;99.90;;;;;;5052367;22;21001;-82
2022/07/21 09:29:40;;;;;;;6.90;6.40;;;24.60;99.90;;;;;;5014391;28;20448;-83
2022/07/21 09:32:16;;;;;;;7.60;7.10;;;24.60;99.90;;;;;;5036047;28;20459;-83
2022/07/21 09:35:27;;;;;;;6.63;6.07;;;24.70;98.50;;;;;;5035882;28;20456;-82
2022/07/21 09:41:14;;;;;;;6.97;6.57;;;24.60;98.90;;;;;;5006835;28;20460;-80
2022/07/21 09:43:56;;;;;;;7.67;7.17;;;24.90;99.60;;;;;;5036894;28;20482;-85
2022/07/21 09:46:25;;;;;;;7.27;6.70;;;25.00;99.00;;;;;;5034332;28;20521;-80
2022/07/21 09:52:38;;;;;;;6.80;6.10;;;25.10;97.50;;;;;;5041012;28;20448;-82
2022/07/21 09:55:09;;;;;;;7.53;6.90;;;25.20;96.80;;;;;;5026486;28;20484;-82
2022/07/21 09:57:43;;;;;;;7.53;6.93;;;25.40;95.10;;;;;;5038690;28;20496;-81
2022/07/21 10:00:18;;;;;;;7.30;6.70;;;25.40;97.00;;;;;;5038026;28;20456;-83
2022/07/21 10:03:20;;;;;;;6.37;5.87;;;25.30;96.50;;;;;;5036947;28;20495;-80
2022/07/21 10:05:53;;;;;;;9.27;8.53;;;25.40;97.70;;;;;;5041913;28;20565;-80
2022/07/21 10:12:00;;;;;;;6.60;6.10;;;25.30;95.90;;;;;;5042130;28;20450;-83
2022/07/21 10:14:32;;;;;;;6.80;6.20;;;25.30;95.90;;;;;;5038565;28;20464;-81
2022/07/21 10:31:23;;;;;;;6.87;5.97;;;26.10;93.90;;;;;;4942473;29;20512;-83
2022/07/21 10:37:51;;;;;;;5.80;5.30;;;26.50;92.10;;;;;;4958380;29;20452;-82
2022/07/21 10:40:39;;;;;;;5.80;5.30;;;26.50;91.30;;;;;;4944926;29;20485;-80
2022/07/21 10:46:57;;;;;;;4.90;4.50;;;26.60;90.20;;;;;;4964108;28;20484;-83
2022/07/21 10:56:32;;;;;;;5.53;5.13;;;27.00;90.10;;;;;;4920832;29;20491;-79
2022/07/21 11:05:46;;;;;;;5.60;5.20;;;27.70;81.90;;;;;;4924384;29;20481;-84
2022/07/21 11:08:26;;;;;;;6.10;5.70;;;27.90;84.30;;;;;;4963135;29;20468;-81
2022/07/21 11:10:54;;;;;;;4.77;4.47;;;27.90;82.80;;;;;;4995060;28;20464;-82
2022/07/21 11:13:25;;;;;;;5.10;4.70;;;28.00;84.50;;;;;;5038788;28;20826;-85
2022/07/21 11:15:58;;;;;;;5.63;5.33;;;28.20;81.50;;;;;;5042782;28;20504;-85
2022/07/21 11:18:26;;;;;;;5.13;4.77;;;27.90;81.40;;;;;;5041728;28;20453;-84
2022/07/21 11:21:11;;;;;;;5.30;4.97;;;27.70;79.60;;;;;;5040513;28;20452;-83
2022/07/21 11:23:41;;;;;;;5.50;5.10;;;28.00;79.10;;;;;;5040297;28;20453;-84
2022/07/21 11:26:09;;;;;;;5.13;4.83;;;28.30;77.60;;;;;;5042243;28;20480;-83
2022/07/21 11:28:38;;;;;;;5.10;4.70;;;28.80;77.60;;;;;;5041260;28;20461;-81
2022/07/21 11:31:15;;;;;;;5.67;5.30;;;28.80;76.80;;;;;;5043855;28;20504;-82
2022/07/21 11:33:45;;;;;;;5.00;4.70;;;28.70;74.70;;;;;;5037335;28;20452;-84
2022/07/21 11:36:24;;;;;;;4.87;4.47;;;28.50;74.90;;;;;;5040160;28;20484;-83
2022/07/21 11:39:06;;;;;;;5.00;4.67;;;28.30;76.40;;;;;;5021489;28;20437;-82
2022/07/21 11:41:34;;;;;;;5.23;4.90;;;27.70;76.70;;;;;;5038386;28;20460;-82
2022/07/21 11:44:03;;;;;;;5.97;5.57;;;27.50;77.80;;;;;;5040879;28;20447;-83
2022/07/21 11:46:47;;;;;;;5.33;4.77;;;27.30;79.30;;;;;;5042106;28;20484;-83
2022/07/21 11:49:13;;;;;;;5.33;5.03;;;27.10;73.90;;;;;;5047954;28;20634;-81
2022/07/21 11:51:47;;;;;;;6.13;5.67;;;27.20;78.60;;;;;;5043015;28;20448;-84
2022/07/21 11:54:21;;;;;;;5.80;5.40;;;27.50;77.70;;;;;;5042641;28;20442;-82
2022/07/21 11:56:49;;;;;;;5.27;4.97;;;28.20;74.30;;;;;;5041169;28;20477;-81
2022/07/21 11:59:17;;;;;;;5.13;4.83;;;29.10;73.70;;;;;;5041273;28;20457;-81
2022/07/21 12:01:58;;;;;;;6.30;5.27;;;30.00;68.40;;;;;;5039761;28;20466;-84
2022/07/21 12:04:40;;;;;;;5.77;5.40;;;30.20;65.00;;;;;;5034155;28;20445;-85
2022/07/21 12:07:12;;;;;;;4.57;4.27;;;30.00;66.20;;;;;;5032511;28;20504;-85
2022/07/21 12:09:41;;;;;;;5.33;5.03;;;29.80;65.80;;;;;;5028724;28;20454;-84
2022/07/21 12:15:33;;;;;;;5.47;4.70;;;29.20;69.10;;;;;;5048131;28;20541;-84
2022/07/21 12:20:46;;;;;;;5.77;5.27;;;28.80;68.00;;;;;;5040922;28;20460;-84
2022/07/21 12:23:21;;;;;;;5.00;4.70;;;28.10;67.70;;;;;;5050450;28;20467;-84
2022/07/21 12:36:45;;;;;;;6.00;5.60;;;29.20;67.70;;;;;;4879911;29;20483;-86
2022/07/21 12:45:50;;;;;;;5.60;5.10;;;31.40;60.10;;;;;;4937184;29;20477;-85
2022/07/21 12:48:50;;;;;;;5.83;5.43;;;30.30;62.00;;;;;;4988901;28;20457;-82
2022/07/21 12:51:51;;;;;;;5.60;5.20;;;29.90;64.60;;;;;;5026802;28;20455;-83
2022/07/21 12:57:03;;;;;;;6.17;5.70;;;30.40;63.70;;;;;;5052661;23;20557;-78
2022/07/21 12:59:30;;;;;;;5.57;5.17;;;30.20;63.10;;;;;;5040130;28;20480;-78
2022/07/21 13:01:56;;;;;;;5.77;5.37;;;30.10;63.20;;;;;;5039967;28;20826;-78
2022/07/21 13:14:33;;;;;;;6.80;6.27;;;29.50;65.10;;;;;;5035647;28;20383;-78
2022/07/21 13:17:00;;;;;;;6.37;5.87;;;30.00;64.60;;;;;;5034679;28;20691;-81
2022/07/21 13:58:30;;;;;;;7.00;6.60;;;33.80;58.50;;;;;;4850437;29;20513;-82
2022/07/21 14:11:13;;;;;;;6.10;5.70;;;33.30;54.80;;;;;;4915343;29;20456;-84
2022/07/21 14:13:41;;;;;;;6.60;6.03;;;32.40;57.20;;;;;;4940865;29;20472;-82
2022/07/21 14:16:09;;;;;;;6.70;5.67;;;32.30;56.00;;;;;;5026452;28;20477;-82
2022/07/21 14:18:36;;;;;;;7.40;6.83;;;32.70;55.90;;;;;;5030576;28;20445;-80
2022/07/21 14:21:03;;;;;;;6.60;6.10;;;33.00;55.00;;;;;;5025531;28;20462;-81
2022/07/21 14:23:29;;;;;;;6.93;6.53;;;33.30;54.30;;;;;;5033481;28;20462;-81
2022/07/21 14:25:56;;;;;;;6.93;6.50;;;32.60;54.00;;;;;;5022752;28;20477;-83
2022/07/21 14:28:23;;;;;;;7.07;6.43;;;32.30;55.20;;;;;;5023146;28;20501;-79
2022/07/21 14:30:52;;;;;;;6.73;6.33;;;31.60;55.90;;;;;;5022805;28;20450;-79
2022/07/21 14:33:19;;;;;;;7.23;6.73;;;31.30;56.00;;;;;;5023093;28;20462;-81
2022/07/21 14:35:46;;;;;;;6.97;6.50;;;31.40;54.40;;;;;;5023453;28;20471;-82
2022/07/21 14:38:12;;;;;;;6.70;6.20;;;31.00;57.50;;;;;;5022380;28;20461;-82
2022/07/21 14:40:39;;;;;;;6.70;6.20;;;31.00;55.80;;;;;;5022587;28;20447;-82
2022/07/21 14:43:06;;;;;;;7.27;6.80;;;30.90;57.60;;;;;;5021753;28;20465;-80
2022/07/21 14:45:33;;;;;;;7.13;6.63;;;30.60;57.90;;;;;;5022258;28;20504;-82
2022/07/21 14:48:01;;;;;;;7.93;7.33;;;30.20;58.00;;;;;;5023797;28;20995;-83
2022/07/21 14:50:29;;;;;;;6.83;6.43;;;29.90;58.60;;;;;;5030596;28;20454;-82
2022/07/21 14:52:57;;;;;;;7.33;6.83;;;29.70;58.50;;;;;;5028693;28;20962;-84
2022/07/21 14:55:24;;;;;;;6.77;6.27;;;29.90;59.60;;;;;;5029347;28;20469;-81
2022/07/21 14:57:52;;;;;;;7.40;6.80;;;29.80;58.80;;;;;;5021306;28;20456;-81
2022/07/21 15:00:19;;;;;;;7.00;6.50;;;29.40;60.00;;;;;;5021362;28;20450;-81
2022/07/21 15:02:46;;;;;;;7.30;6.80;;;29.10;61.30;;;;;;5021960;28;20454;-81
2022/07/21 15:05:14;;;;;;;7.50;6.80;;;29.20;60.50;;;;;;5022175;28;20478;-80
2022/07/21 15:07:41;;;;;;;6.50;6.10;;;29.20;60.30;;;;;;5030437;28;20482;-81
2022/07/21 15:10:08;;;;;;;7.63;7.03;;;28.90;61.10;;;;;;5023198;28;20458;-85
2022/07/21 15:12:35;;;;;;;7.53;6.93;;;28.80;62.80;;;;;;5024080;28;20450;-82
2022/07/21 15:15:02;;;;;;;7.03;6.53;;;28.70;62.20;;;;;;5025850;28;20472;-84
2022/07/21 15:17:29;;;;;;;7.07;6.57;;;28.60;62.80;;;;;;5027969;28;20456;-82
2022/07/21 15:19:58;;;;;;;7.47;6.97;;;28.30;63.20;;;;;;5024149;28;20489;-81
2022/07/21 15:22:28;;;;;;;7.57;7.00;;;28.20;63.50;;;;;;5023324;28;20815;-81
2022/07/21 15:24:56;;;;;;;6.60;6.20;;;28.30;63.50;;;;;;5021241;28;20623;-78
2022/07/21 15:27:23;;;;;;;6.30;5.90;;;28.50;63.10;;;;;;5019915;28;20483;-79
2022/07/21 15:29:49;;;;;;;7.03;6.43;;;28.70;65.20;;;;;;5022574;28;20454;-82
2022/07/21 15:32:16;;;;;;;6.50;6.10;;;28.90;62.70;;;;;;5023165;28;20944;-80